sensor_id;sensor_type;location;lat;lon;timestamp;P1;durP1;ratioP1;P2;durP2;ratioP2
51190;SDS011;37253;48.736;9.294;2023-03-01T00:00:24;3.95;;;2.55;;
51190;SDS011;37253;48.736;9.294;2023-03-01T00:02:25;4.47;;;2.55;;
51190;SDS011;37253;48.736;9.294;2023-03-01T00:04:25;3.50;;;2.65;;
51190;SDS011;37253;48.736;9.294;2023-03-01T00:06:26;3.00;;;2.20;;
51190;SDS011;37253;48.736;9.294;2023-03-01T00:08:27;4.00;;;2.30;;
51190;SDS011;37253;48.736;9.294;2023-03-01T00:10:27;4.28;;;2.30;;
51190;SDS011;37253;48.736;9.294;2023-03-01T00:12:27;3.88;;;2.58;;
51190;SDS011;37253;48.736;9.294;2023-03-01T00:14:28;4.30;;;2.42;;
51190;SDS011;37253;48.736;9.294;2023-03-01T00:16:29;4.50;;;2.60;;
51190;SDS011;37253;48.736;9.294;2023-03-01T00:18:40;4.13;;;3.05;;
51190;SDS011;37253;48.736;9.294;2023-03-01T00:20:40;3.40;;;2.38;;
51190;SDS011;37253;48.736;9.294;2023-03-01T00:22:40;3.70;;;2.35;;
51190;SDS011;37253;48.736;9.294;2023-03-01T00:24:41;3.35;;;2.33;;
51190;SDS011;37253;48.736;9.294;2023-03-01T00:26:41;4.40;;;2.40;;
51190;SDS011;37253;48.736;9.294;2023-03-01T00:28:42;3.65;;;2.58;;
51190;SDS011;37253;48.736;9.294;2023-03-01T00:30:42;3.85;;;2.40;;
51190;SDS011;37253;48.736;9.294;2023-03-01T00:32:43;5.63;;;2.63;;
51190;SDS011;37253;48.736;9.294;2023-03-01T00:34:43;2.65;;;2.17;;
51190;SDS011;37253;48.736;9.294;2023-03-01T00:36:53;3.22;;;2.60;;
51190;SDS011;37253;48.736;9.294;2023-03-01T00:38:54;3.28;;;2.38;;
51190;SDS011;37253;48.736;9.294;2023-03-01T00:40:54;4.53;;;2.25;;
51190;SDS011;37253;48.736;9.294;2023-03-01T00:42:55;3.67;;;2.67;;
51190;SDS011;37253;48.736;9.294;2023-03-01T00:44:55;3.42;;;2.65;;
51190;SDS011;37253;48.736;9.294;2023-03-01T00:46:55;5.53;;;2.53;;
51190;SDS011;37253;48.736;9.294;2023-03-01T00:48:56;3.67;;;2.40;;
51190;SDS011;37253;48.736;9.294;2023-03-01T00:50:57;2.78;;;2.20;;
51190;SDS011;37253;48.736;9.294;2023-03-01T00:52:57;3.13;;;2.60;;
51190;SDS011;37253;48.736;9.294;2023-03-01T00:54:58;4.28;;;2.80;;
51190;SDS011;37253;48.736;9.294;2023-03-01T00:56:58;3.60;;;2.50;;
51190;SDS011;37253;48.736;9.294;2023-03-01T00:58:58;3.75;;;2.58;;
51190;SDS011;37253;48.736;9.294;2023-03-01T01:00:59;4.53;;;2.42;;
51190;SDS011;37253;48.736;9.294;2023-03-01T01:03:00;3.53;;;2.75;;
51190;SDS011;37253;48.736;9.294;2023-03-01T01:05:00;2.90;;;2.22;;
51190;SDS011;37253;48.736;9.294;2023-03-01T01:07:00;3.97;;;2.72;;
51190;SDS011;37253;48.736;9.294;2023-03-01T01:09:01;2.58;;;2.17;;
51190;SDS011;37253;48.736;9.294;2023-03-01T01:11:02;4.47;;;2.58;;
51190;SDS011;37253;48.736;9.294;2023-03-01T01:13:03;4.25;;;2.20;;
51190;SDS011;37253;48.736;9.294;2023-03-01T01:15:03;3.03;;;2.42;;
51190;SDS011;37253;48.736;9.294;2023-03-01T01:17:04;4.05;;;2.60;;
51190;SDS011;37253;48.736;9.294;2023-03-01T01:19:04;3.00;;;2.70;;
51190;SDS011;37253;48.736;9.294;2023-03-01T01:21:06;5.53;;;2.38;;
51190;SDS011;37253;48.736;9.294;2023-03-01T01:23:10;4.22;;;2.63;;
51190;SDS011;37253;48.736;9.294;2023-03-01T01:25:10;3.75;;;2.75;;
51190;SDS011;37253;48.736;9.294;2023-03-01T01:27:11;4.57;;;2.72;;
51190;SDS011;37253;48.736;9.294;2023-03-01T01:29:11;3.90;;;2.30;;
51190;SDS011;37253;48.736;9.294;2023-03-01T01:31:12;3.08;;;2.30;;
51190;SDS011;37253;48.736;9.294;2023-03-01T01:33:12;3.40;;;2.50;;
51190;SDS011;37253;48.736;9.294;2023-03-01T01:35:12;4.97;;;2.30;;
51190;SDS011;37253;48.736;9.294;2023-03-01T01:37:13;3.42;;;2.45;;
51190;SDS011;37253;48.736;9.294;2023-03-01T01:39:13;2.72;;;2.22;;
51190;SDS011;37253;48.736;9.294;2023-03-01T01:41:14;4.13;;;2.53;;
51190;SDS011;37253;48.736;9.294;2023-03-01T01:43:25;2.95;;;2.65;;
51190;SDS011;37253;48.736;9.294;2023-03-01T01:45:30;3.58;;;2.38;;
51190;SDS011;37253;48.736;9.294;2023-03-01T01:47:33;3.05;;;2.75;;
51190;SDS011;37253;48.736;9.294;2023-03-01T01:49:38;4.88;;;2.28;;
51190;SDS011;37253;48.736;9.294;2023-03-01T01:51:45;4.00;;;2.65;;
51190;SDS011;37253;48.736;9.294;2023-03-01T01:53:49;2.97;;;2.50;;
51190;SDS011;37253;48.736;9.294;2023-03-01T01:55:53;3.33;;;2.90;;
51190;SDS011;37253;48.736;9.294;2023-03-01T01:57:58;3.83;;;2.58;;
51190;SDS011;37253;48.736;9.294;2023-03-01T02:00:06;2.58;;;2.22;;
51190;SDS011;37253;48.736;9.294;2023-03-01T02:02:08;3.83;;;2.53;;
51190;SDS011;37253;48.736;9.294;2023-03-01T02:04:09;4.07;;;2.92;;
51190;SDS011;37253;48.736;9.294;2023-03-01T02:06:18;3.70;;;2.80;;
51190;SDS011;37253;48.736;9.294;2023-03-01T02:08:22;2.90;;;2.60;;
51190;SDS011;37253;48.736;9.294;2023-03-01T02:10:23;4.22;;;3.13;;
51190;SDS011;37253;48.736;9.294;2023-03-01T02:12:24;8.13;;;2.72;;
51190;SDS011;37253;48.736;9.294;2023-03-01T02:14:25;3.78;;;2.60;;
51190;SDS011;37253;48.736;9.294;2023-03-01T02:16:26;3.00;;;2.42;;
51190;SDS011;37253;48.736;9.294;2023-03-01T02:18:26;2.95;;;2.28;;
51190;SDS011;37253;48.736;9.294;2023-03-01T02:20:31;3.58;;;2.58;;
51190;SDS011;37253;48.736;9.294;2023-03-01T02:22:34;5.22;;;2.90;;
51190;SDS011;37253;48.736;9.294;2023-03-01T02:27:13;3.10;;;2.50;;
51190;SDS011;37253;48.736;9.294;2023-03-01T02:29:13;4.80;;;2.88;;
51190;SDS011;37253;48.736;9.294;2023-03-01T02:31:14;4.25;;;2.90;;
51190;SDS011;37253;48.736;9.294;2023-03-01T02:33:35;3.03;;;2.50;;
51190;SDS011;37253;48.736;9.294;2023-03-01T02:35:37;3.55;;;2.92;;
51190;SDS011;37253;48.736;9.294;2023-03-01T02:37:39;3.17;;;2.35;;
51190;SDS011;37253;48.736;9.294;2023-03-01T02:39:44;2.75;;;2.40;;
51190;SDS011;37253;48.736;9.294;2023-03-01T02:41:50;4.88;;;2.83;;
51190;SDS011;37253;48.736;9.294;2023-03-01T02:43:52;4.57;;;2.60;;
51190;SDS011;37253;48.736;9.294;2023-03-01T02:45:53;2.95;;;2.40;;
51190;SDS011;37253;48.736;9.294;2023-03-01T02:47:54;2.60;;;2.30;;
51190;SDS011;37253;48.736;9.294;2023-03-01T02:49:55;4.63;;;2.65;;
51190;SDS011;37253;48.736;9.294;2023-03-01T02:56:23;3.42;;;2.53;;
51190;SDS011;37253;48.736;9.294;2023-03-01T02:58:23;3.75;;;2.42;;
51190;SDS011;37253;48.736;9.294;2023-03-01T03:00:24;3.38;;;2.70;;
51190;SDS011;37253;48.736;9.294;2023-03-01T03:02:28;3.78;;;2.47;;
51190;SDS011;37253;48.736;9.294;2023-03-01T03:04:36;3.85;;;2.88;;
51190;SDS011;37253;48.736;9.294;2023-03-01T03:06:36;4.40;;;2.70;;
51190;SDS011;37253;48.736;9.294;2023-03-01T03:08:37;3.35;;;2.63;;
51190;SDS011;37253;48.736;9.294;2023-03-01T03:10:38;3.08;;;2.60;;
51190;SDS011;37253;48.736;9.294;2023-03-01T03:12:40;2.88;;;2.15;;
51190;SDS011;37253;48.736;9.294;2023-03-01T03:14:41;4.57;;;2.75;;
51190;SDS011;37253;48.736;9.294;2023-03-01T03:16:45;2.60;;;2.38;;
51190;SDS011;37253;48.736;9.294;2023-03-01T03:18:47;3.08;;;2.67;;
51190;SDS011;37253;48.736;9.294;2023-03-01T03:20:48;5.03;;;2.63;;
51190;SDS011;37253;48.736;9.294;2023-03-01T03:22:53;4.53;;;2.60;;
51190;SDS011;37253;48.736;9.294;2023-03-01T03:24:55;3.70;;;2.97;;
51190;SDS011;37253;48.736;9.294;2023-03-01T03:26:56;3.45;;;2.75;;
51190;SDS011;37253;48.736;9.294;2023-03-01T03:28:56;3.60;;;2.75;;
51190;SDS011;37253;48.736;9.294;2023-03-01T03:30:57;2.90;;;2.50;;
51190;SDS011;37253;48.736;9.294;2023-03-01T03:32:58;3.20;;;2.85;;
51190;SDS011;37253;48.736;9.294;2023-03-01T03:34:59;3.15;;;2.80;;
51190;SDS011;37253;48.736;9.294;2023-03-01T03:36:59;2.88;;;2.50;;
51190;SDS011;37253;48.736;9.294;2023-03-01T03:38:59;3.58;;;3.00;;
51190;SDS011;37253;48.736;9.294;2023-03-01T03:41:04;3.33;;;3.03;;
51190;SDS011;37253;48.736;9.294;2023-03-01T03:43:08;2.97;;;2.67;;
51190;SDS011;37253;48.736;9.294;2023-03-01T03:45:10;2.92;;;2.55;;
51190;SDS011;37253;48.736;9.294;2023-03-01T03:47:10;3.08;;;2.63;;
51190;SDS011;37253;48.736;9.294;2023-03-01T03:49:10;4.60;;;2.80;;
51190;SDS011;37253;48.736;9.294;2023-03-01T03:51:12;2.95;;;2.60;;
51190;SDS011;37253;48.736;9.294;2023-03-01T03:53:13;3.67;;;2.70;;
51190;SDS011;37253;48.736;9.294;2023-03-01T03:55:13;5.07;;;3.10;;
51190;SDS011;37253;48.736;9.294;2023-03-01T03:57:14;3.65;;;2.95;;
51190;SDS011;37253;48.736;9.294;2023-03-01T03:59:14;3.15;;;2.78;;
51190;SDS011;37253;48.736;9.294;2023-03-01T04:01:14;3.28;;;2.97;;
51190;SDS011;37253;48.736;9.294;2023-03-01T04:03:15;3.85;;;2.95;;
51190;SDS011;37253;48.736;9.294;2023-03-01T04:05:17;4.15;;;3.10;;
51190;SDS011;37253;48.736;9.294;2023-03-01T04:07:17;3.10;;;2.80;;
51190;SDS011;37253;48.736;9.294;2023-03-01T04:09:18;3.40;;;2.72;;
51190;SDS011;37253;48.736;9.294;2023-03-01T04:11:18;3.53;;;2.95;;
51190;SDS011;37253;48.736;9.294;2023-03-01T04:13:28;3.40;;;2.80;;
51190;SDS011;37253;48.736;9.294;2023-03-01T04:15:28;3.60;;;2.83;;
51190;SDS011;37253;48.736;9.294;2023-03-01T04:17:30;3.85;;;2.72;;
51190;SDS011;37253;48.736;9.294;2023-03-01T04:19:31;2.78;;;2.38;;
51190;SDS011;37253;48.736;9.294;2023-03-01T04:21:35;4.82;;;3.13;;
51190;SDS011;37253;48.736;9.294;2023-03-01T04:23:36;2.50;;;2.30;;
51190;SDS011;37253;48.736;9.294;2023-03-01T04:25:40;3.22;;;2.80;;
51190;SDS011;37253;48.736;9.294;2023-03-01T04:27:53;3.25;;;2.95;;
51190;SDS011;37253;48.736;9.294;2023-03-01T04:29:53;3.90;;;3.15;;
51190;SDS011;37253;48.736;9.294;2023-03-01T04:31:54;3.38;;;2.92;;
51190;SDS011;37253;48.736;9.294;2023-03-01T04:33:54;3.55;;;2.90;;
51190;SDS011;37253;48.736;9.294;2023-03-01T04:35:55;3.50;;;2.97;;
51190;SDS011;37253;48.736;9.294;2023-03-01T04:37:57;3.90;;;3.20;;
51190;SDS011;37253;48.736;9.294;2023-03-01T04:39:57;4.32;;;2.88;;
51190;SDS011;37253;48.736;9.294;2023-03-01T04:41:58;3.45;;;2.75;;
51190;SDS011;37253;48.736;9.294;2023-03-01T04:43:58;4.25;;;2.80;;
51190;SDS011;37253;48.736;9.294;2023-03-01T04:46:00;3.83;;;2.90;;
51190;SDS011;37253;48.736;9.294;2023-03-01T04:48:03;3.67;;;3.00;;
51190;SDS011;37253;48.736;9.294;2023-03-01T04:50:03;3.03;;;2.60;;
51190;SDS011;37253;48.736;9.294;2023-03-01T04:52:04;3.90;;;3.25;;
51190;SDS011;37253;48.736;9.294;2023-03-01T04:54:05;4.07;;;3.13;;
51190;SDS011;37253;48.736;9.294;2023-03-01T04:56:08;3.63;;;3.10;;
51190;SDS011;37253;48.736;9.294;2023-03-01T04:58:09;3.55;;;2.83;;
51190;SDS011;37253;48.736;9.294;2023-03-01T05:00:11;3.53;;;2.75;;
51190;SDS011;37253;48.736;9.294;2023-03-01T05:02:22;4.10;;;2.90;;
51190;SDS011;37253;48.736;9.294;2023-03-01T05:04:22;6.55;;;3.63;;
51190;SDS011;37253;48.736;9.294;2023-03-01T05:06:23;3.63;;;2.90;;
51190;SDS011;37253;48.736;9.294;2023-03-01T05:08:24;3.80;;;2.97;;
51190;SDS011;37253;48.736;9.294;2023-03-01T05:10:24;4.78;;;3.60;;
51190;SDS011;37253;48.736;9.294;2023-03-01T05:12:25;3.70;;;2.90;;
51190;SDS011;37253;48.736;9.294;2023-03-01T05:14:26;3.72;;;3.40;;
51190;SDS011;37253;48.736;9.294;2023-03-01T05:16:26;4.00;;;2.90;;
51190;SDS011;37253;48.736;9.294;2023-03-01T05:18:27;4.20;;;3.10;;
51190;SDS011;37253;48.736;9.294;2023-03-01T05:20:29;4.47;;;2.80;;
51190;SDS011;37253;48.736;9.294;2023-03-01T05:22:30;3.58;;;3.15;;
51190;SDS011;37253;48.736;9.294;2023-03-01T05:24:31;3.20;;;2.67;;
51190;SDS011;37253;48.736;9.294;2023-03-01T05:26:33;4.53;;;3.20;;
51190;SDS011;37253;48.736;9.294;2023-03-01T05:28:33;5.18;;;2.95;;
51190;SDS011;37253;48.736;9.294;2023-03-01T05:30:34;4.65;;;2.70;;
51190;SDS011;37253;48.736;9.294;2023-03-01T05:32:34;3.30;;;2.78;;
51190;SDS011;37253;48.736;9.294;2023-03-01T05:34:35;4.55;;;3.50;;
51190;SDS011;37253;48.736;9.294;2023-03-01T05:36:36;3.97;;;3.25;;
51190;SDS011;37253;48.736;9.294;2023-03-01T05:38:36;3.95;;;2.97;;
51190;SDS011;37253;48.736;9.294;2023-03-01T05:40:36;3.45;;;3.08;;
51190;SDS011;37253;48.736;9.294;2023-03-01T05:42:37;3.03;;;2.70;;
51190;SDS011;37253;48.736;9.294;2023-03-01T05:44:37;4.88;;;2.97;;
51190;SDS011;37253;48.736;9.294;2023-03-01T05:46:38;3.05;;;2.72;;
51190;SDS011;37253;48.736;9.294;2023-03-01T05:48:38;3.35;;;2.97;;
51190;SDS011;37253;48.736;9.294;2023-03-01T05:50:43;3.42;;;3.13;;
51190;SDS011;37253;48.736;9.294;2023-03-01T05:52:47;8.90;;;3.22;;
51190;SDS011;37253;48.736;9.294;2023-03-01T05:54:48;5.68;;;3.22;;
51190;SDS011;37253;48.736;9.294;2023-03-01T05:56:49;5.40;;;2.80;;
51190;SDS011;37253;48.736;9.294;2023-03-01T05:58:49;3.20;;;2.90;;
51190;SDS011;37253;48.736;9.294;2023-03-01T06:00:50;3.83;;;3.17;;
51190;SDS011;37253;48.736;9.294;2023-03-01T06:02:50;4.60;;;3.47;;
51190;SDS011;37253;48.736;9.294;2023-03-01T06:04:51;3.22;;;2.92;;
51190;SDS011;37253;48.736;9.294;2023-03-01T06:06:52;3.35;;;2.83;;
51190;SDS011;37253;48.736;9.294;2023-03-01T06:08:52;4.20;;;3.20;;
51190;SDS011;37253;48.736;9.294;2023-03-01T06:10:53;4.18;;;3.25;;
51190;SDS011;37253;48.736;9.294;2023-03-01T06:12:54;3.30;;;2.83;;
51190;SDS011;37253;48.736;9.294;2023-03-01T06:14:54;4.32;;;2.90;;
51190;SDS011;37253;48.736;9.294;2023-03-01T06:16:55;7.20;;;3.20;;
51190;SDS011;37253;48.736;9.294;2023-03-01T06:18:55;3.45;;;3.10;;
51190;SDS011;37253;48.736;9.294;2023-03-01T06:20:56;4.07;;;3.10;;
51190;SDS011;37253;48.736;9.294;2023-03-01T06:22:56;5.80;;;3.28;;
51190;SDS011;37253;48.736;9.294;2023-03-01T06:24:57;7.70;;;3.13;;
51190;SDS011;37253;48.736;9.294;2023-03-01T06:26:57;6.88;;;3.20;;
51190;SDS011;37253;48.736;9.294;2023-03-01T06:28:58;7.20;;;3.10;;
51190;SDS011;37253;48.736;9.294;2023-03-01T06:30:58;4.43;;;3.15;;
51190;SDS011;37253;48.736;9.294;2023-03-01T06:32:58;5.82;;;3.20;;
51190;SDS011;37253;48.736;9.294;2023-03-01T06:35:01;4.60;;;3.30;;
51190;SDS011;37253;48.736;9.294;2023-03-01T06:37:01;8.75;;;4.15;;
51190;SDS011;37253;48.736;9.294;2023-03-01T06:39:05;6.22;;;3.80;;
51190;SDS011;37253;48.736;9.294;2023-03-01T06:41:05;5.40;;;3.42;;
51190;SDS011;37253;48.736;9.294;2023-03-01T06:43:06;4.53;;;3.17;;
51190;SDS011;37253;48.736;9.294;2023-03-01T06:45:08;7.85;;;3.25;;
51190;SDS011;37253;48.736;9.294;2023-03-01T06:47:09;4.38;;;2.95;;
51190;SDS011;37253;48.736;9.294;2023-03-01T06:49:09;4.38;;;3.33;;
51190;SDS011;37253;48.736;9.294;2023-03-01T06:51:09;7.32;;;3.25;;
51190;SDS011;37253;48.736;9.294;2023-03-01T06:53:09;9.07;;;2.85;;
51190;SDS011;37253;48.736;9.294;2023-03-01T06:55:11;6.13;;;2.97;;
51190;SDS011;37253;48.736;9.294;2023-03-01T06:57:11;6.05;;;3.15;;
51190;SDS011;37253;48.736;9.294;2023-03-01T06:59:12;6.68;;;3.60;;
51190;SDS011;37253;48.736;9.294;2023-03-01T07:01:12;6.10;;;3.28;;
51190;SDS011;37253;48.736;9.294;2023-03-01T07:03:13;7.55;;;3.45;;
51190;SDS011;37253;48.736;9.294;2023-03-01T07:05:13;10.93;;;4.00;;
51190;SDS011;37253;48.736;9.294;2023-03-01T07:07:13;7.03;;;3.65;;
51190;SDS011;37253;48.736;9.294;2023-03-01T07:09:14;8.73;;;4.18;;
51190;SDS011;37253;48.736;9.294;2023-03-01T07:11:14;8.60;;;3.92;;
51190;SDS011;37253;48.736;9.294;2023-03-01T07:13:15;6.95;;;4.30;;
51190;SDS011;37253;48.736;9.294;2023-03-01T07:15:15;7.45;;;3.72;;
51190;SDS011;37253;48.736;9.294;2023-03-01T07:17:16;10.55;;;4.22;;
51190;SDS011;37253;48.736;9.294;2023-03-01T07:19:16;8.27;;;3.88;;
51190;SDS011;37253;48.736;9.294;2023-03-01T07:21:16;9.13;;;4.10;;
51190;SDS011;37253;48.736;9.294;2023-03-01T07:23:16;8.57;;;4.72;;
51190;SDS011;37253;48.736;9.294;2023-03-01T07:25:17;6.88;;;4.18;;
51190;SDS011;37253;48.736;9.294;2023-03-01T07:27:17;10.98;;;4.40;;
51190;SDS011;37253;48.736;9.294;2023-03-01T07:29:18;53.45;;;14.43;;
51190;SDS011;37253;48.736;9.294;2023-03-01T07:31:18;63.83;;;18.38;;
51190;SDS011;37253;48.736;9.294;2023-03-01T07:33:18;58.45;;;16.20;;
51190;SDS011;37253;48.736;9.294;2023-03-01T07:35:19;37.65;;;12.25;;
51190;SDS011;37253;48.736;9.294;2023-03-01T07:37:19;40.47;;;14.35;;
51190;SDS011;37253;48.736;9.294;2023-03-01T07:39:19;34.78;;;11.25;;
51190;SDS011;37253;48.736;9.294;2023-03-01T07:41:20;37.22;;;11.55;;
51190;SDS011;37253;48.736;9.294;2023-03-01T07:43:20;30.60;;;10.30;;
51190;SDS011;37253;48.736;9.294;2023-03-01T07:45:20;24.45;;;8.68;;
51190;SDS011;37253;48.736;9.294;2023-03-01T07:47:21;24.23;;;8.60;;
51190;SDS011;37253;48.736;9.294;2023-03-01T07:49:21;19.23;;;7.70;;
51190;SDS011;37253;48.736;9.294;2023-03-01T07:51:22;24.00;;;7.88;;
51190;SDS011;37253;48.736;9.294;2023-03-01T07:53:22;25.80;;;7.38;;
51190;SDS011;37253;48.736;9.294;2023-03-01T07:55:22;31.15;;;7.82;;
51190;SDS011;37253;48.736;9.294;2023-03-01T07:57:23;28.98;;;7.28;;
51190;SDS011;37253;48.736;9.294;2023-03-01T07:59:23;16.33;;;6.80;;
51190;SDS011;37253;48.736;9.294;2023-03-01T08:01:28;23.35;;;7.20;;
51190;SDS011;37253;48.736;9.294;2023-03-01T08:03:29;17.42;;;5.95;;
51190;SDS011;37253;48.736;9.294;2023-03-01T08:05:29;21.80;;;6.55;;
51190;SDS011;37253;48.736;9.294;2023-03-01T08:07:30;18.88;;;6.47;;
51190;SDS011;37253;48.736;9.294;2023-03-01T08:09:30;19.83;;;6.22;;
51190;SDS011;37253;48.736;9.294;2023-03-01T08:11:30;20.55;;;6.28;;
51190;SDS011;37253;48.736;9.294;2023-03-01T08:13:31;15.57;;;5.30;;
51190;SDS011;37253;48.736;9.294;2023-03-01T08:15:32;16.00;;;6.15;;
51190;SDS011;37253;48.736;9.294;2023-03-01T08:17:33;12.45;;;4.88;;
51190;SDS011;37253;48.736;9.294;2023-03-01T08:19:33;10.73;;;4.80;;
51190;SDS011;37253;48.736;9.294;2023-03-01T08:21:34;20.85;;;6.30;;
51190;SDS011;37253;48.736;9.294;2023-03-01T08:23:35;12.18;;;5.30;;
51190;SDS011;37253;48.736;9.294;2023-03-01T08:25:35;18.15;;;5.82;;
51190;SDS011;37253;48.736;9.294;2023-03-01T08:27:36;14.75;;;5.22;;
51190;SDS011;37253;48.736;9.294;2023-03-01T08:29:36;11.32;;;5.10;;
51190;SDS011;37253;48.736;9.294;2023-03-01T08:31:37;13.57;;;5.40;;
51190;SDS011;37253;48.736;9.294;2023-03-01T08:33:39;10.90;;;4.93;;
51190;SDS011;37253;48.736;9.294;2023-03-01T08:35:40;10.45;;;4.68;;
51190;SDS011;37253;48.736;9.294;2023-03-01T08:37:40;12.38;;;5.65;;
51190;SDS011;37253;48.736;9.294;2023-03-01T08:39:40;13.55;;;5.13;;
51190;SDS011;37253;48.736;9.294;2023-03-01T08:41:41;14.80;;;5.50;;
51190;SDS011;37253;48.736;9.294;2023-03-01T08:43:41;10.10;;;4.93;;
51190;SDS011;37253;48.736;9.294;2023-03-01T08:45:42;11.25;;;4.72;;
51190;SDS011;37253;48.736;9.294;2023-03-01T08:47:42;10.35;;;4.72;;
51190;SDS011;37253;48.736;9.294;2023-03-01T08:49:42;12.27;;;4.70;;
51190;SDS011;37253;48.736;9.294;2023-03-01T08:51:43;11.07;;;4.68;;
51190;SDS011;37253;48.736;9.294;2023-03-01T08:53:44;8.02;;;4.65;;
51190;SDS011;37253;48.736;9.294;2023-03-01T08:55:44;52.15;;;7.28;;
51190;SDS011;37253;48.736;9.294;2023-03-01T08:57:45;24.48;;;6.20;;
51190;SDS011;37253;48.736;9.294;2023-03-01T09:02:25;28.90;;;5.30;;
51190;SDS011;37253;48.736;9.294;2023-03-01T09:04:25;17.27;;;5.10;;
51190;SDS011;37253;48.736;9.294;2023-03-01T09:06:26;21.33;;;5.03;;
51190;SDS011;37253;48.736;9.294;2023-03-01T09:08:26;29.65;;;6.82;;
51190;SDS011;37253;48.736;9.294;2023-03-01T09:10:26;19.90;;;5.35;;
51190;SDS011;37253;48.736;9.294;2023-03-01T09:12:27;19.77;;;5.95;;
51190;SDS011;37253;48.736;9.294;2023-03-01T09:14:27;17.90;;;6.03;;
51190;SDS011;37253;48.736;9.294;2023-03-01T09:16:28;29.13;;;5.82;;
51190;SDS011;37253;48.736;9.294;2023-03-01T09:18:29;31.98;;;6.00;;
51190;SDS011;37253;48.736;9.294;2023-03-01T09:20:30;30.83;;;5.85;;
51190;SDS011;37253;48.736;9.294;2023-03-01T09:22:33;35.92;;;5.28;;
51190;SDS011;37253;48.736;9.294;2023-03-01T09:24:34;26.08;;;5.85;;
51190;SDS011;37253;48.736;9.294;2023-03-01T09:26:34;14.65;;;5.07;;
51190;SDS011;37253;48.736;9.294;2023-03-01T09:28:35;23.45;;;5.20;;
51190;SDS011;37253;48.736;9.294;2023-03-01T09:30:35;25.17;;;5.45;;
51190;SDS011;37253;48.736;9.294;2023-03-01T09:32:35;21.38;;;5.10;;
51190;SDS011;37253;48.736;9.294;2023-03-01T09:34:36;21.15;;;5.53;;
51190;SDS011;37253;48.736;9.294;2023-03-01T09:36:57;23.65;;;5.88;;
51190;SDS011;37253;48.736;9.294;2023-03-01T09:38:57;33.28;;;6.18;;
51190;SDS011;37253;48.736;9.294;2023-03-01T09:40:59;31.00;;;5.65;;
51190;SDS011;37253;48.736;9.294;2023-03-01T09:43:06;24.85;;;5.97;;
51190;SDS011;37253;48.736;9.294;2023-03-01T09:45:11;20.05;;;5.25;;
51190;SDS011;37253;48.736;9.294;2023-03-01T09:47:24;20.13;;;5.43;;
51190;SDS011;37253;48.736;9.294;2023-03-01T09:49:30;15.18;;;4.65;;
51190;SDS011;37253;48.736;9.294;2023-03-01T09:51:33;24.02;;;5.63;;
51190;SDS011;37253;48.736;9.294;2023-03-01T09:53:34;20.85;;;4.72;;
51190;SDS011;37253;48.736;9.294;2023-03-01T10:00:07;18.98;;;4.70;;
51190;SDS011;37253;48.736;9.294;2023-03-01T10:04:50;33.08;;;5.20;;
51190;SDS011;37253;48.736;9.294;2023-03-01T10:06:56;13.52;;;5.18;;
51190;SDS011;37253;48.736;9.294;2023-03-01T10:09:10;13.35;;;4.63;;
51190;SDS011;37253;48.736;9.294;2023-03-01T10:13:25;9.73;;;4.47;;
51190;SDS011;37253;48.736;9.294;2023-03-01T10:16:01;11.80;;;4.75;;
51190;SDS011;37253;48.736;9.294;2023-03-01T10:17:56;10.52;;;4.78;;
51190;SDS011;37253;48.736;9.294;2023-03-01T10:20:10;11.63;;;4.07;;
51190;SDS011;37253;48.736;9.294;2023-03-01T10:22:15;18.08;;;4.85;;
51190;SDS011;37253;48.736;9.294;2023-03-01T10:24:19;15.43;;;5.10;;
51190;SDS011;37253;48.736;9.294;2023-03-01T10:26:43;15.25;;;4.75;;
51190;SDS011;37253;48.736;9.294;2023-03-01T10:30:54;13.18;;;4.13;;
51190;SDS011;37253;48.736;9.294;2023-03-01T10:32:54;12.73;;;4.50;;
51190;SDS011;37253;48.736;9.294;2023-03-01T10:34:56;10.82;;;4.35;;
51190;SDS011;37253;48.736;9.294;2023-03-01T10:36:59;9.82;;;4.40;;
51190;SDS011;37253;48.736;9.294;2023-03-01T10:39:12;13.93;;;4.10;;
51190;SDS011;37253;48.736;9.294;2023-03-01T10:41:14;10.95;;;4.25;;
51190;SDS011;37253;48.736;9.294;2023-03-01T10:43:14;12.68;;;4.45;;
51190;SDS011;37253;48.736;9.294;2023-03-01T10:47:29;10.73;;;4.68;;
51190;SDS011;37253;48.736;9.294;2023-03-01T10:49:30;7.90;;;4.32;;
51190;SDS011;37253;48.736;9.294;2023-03-01T10:51:31;11.63;;;4.70;;
51190;SDS011;37253;48.736;9.294;2023-03-01T10:53:33;9.88;;;4.10;;
51190;SDS011;37253;48.736;9.294;2023-03-01T10:55:38;11.45;;;4.10;;
51190;SDS011;37253;48.736;9.294;2023-03-01T10:57:39;9.55;;;4.05;;
51190;SDS011;37253;48.736;9.294;2023-03-01T10:59:41;7.45;;;4.10;;
51190;SDS011;37253;48.736;9.294;2023-03-01T11:01:41;8.60;;;4.00;;
51190;SDS011;37253;48.736;9.294;2023-03-01T11:03:41;8.65;;;3.55;;
51190;SDS011;37253;48.736;9.294;2023-03-01T11:05:53;8.68;;;3.97;;
51190;SDS011;37253;48.736;9.294;2023-03-01T11:07:55;11.25;;;4.57;;
51190;SDS011;37253;48.736;9.294;2023-03-01T11:09:56;12.55;;;4.50;;
51190;SDS011;37253;48.736;9.294;2023-03-01T11:11:57;10.52;;;4.60;;
51190;SDS011;37253;48.736;9.294;2023-03-01T11:14:03;11.45;;;4.30;;
51190;SDS011;37253;48.736;9.294;2023-03-01T11:16:05;11.82;;;3.53;;
51190;SDS011;37253;48.736;9.294;2023-03-01T11:18:18;13.77;;;3.95;;
51190;SDS011;37253;48.736;9.294;2023-03-01T11:20:23;10.15;;;3.72;;
51190;SDS011;37253;48.736;9.294;2023-03-01T11:22:26;9.23;;;4.60;;
51190;SDS011;37253;48.736;9.294;2023-03-01T11:24:31;9.45;;;4.40;;
51190;SDS011;37253;48.736;9.294;2023-03-01T11:26:36;9.32;;;4.45;;
51190;SDS011;37253;48.736;9.294;2023-03-01T11:28:39;8.50;;;4.18;;
51190;SDS011;37253;48.736;9.294;2023-03-01T11:30:51;7.97;;;3.70;;
51190;SDS011;37253;48.736;9.294;2023-03-01T11:33:13;11.40;;;3.90;;
51190;SDS011;37253;48.736;9.294;2023-03-01T11:35:21;9.18;;;3.80;;
51190;SDS011;37253;48.736;9.294;2023-03-01T11:37:50;7.50;;;3.88;;
51190;SDS011;37253;48.736;9.294;2023-03-01T11:40:22;8.02;;;3.88;;
51190;SDS011;37253;48.736;9.294;2023-03-01T11:44:50;8.88;;;3.78;;
51190;SDS011;37253;48.736;9.294;2023-03-01T11:56:26;6.28;;;3.72;;
51190;SDS011;37253;48.736;9.294;2023-03-01T12:00:57;12.85;;;3.92;;
51190;SDS011;37253;48.736;9.294;2023-03-01T12:07:56;8.77;;;3.95;;
51190;SDS011;37253;48.736;9.294;2023-03-01T12:12:27;9.13;;;3.80;;
51190;SDS011;37253;48.736;9.294;2023-03-01T12:17:07;8.48;;;4.05;;
51190;SDS011;37253;48.736;9.294;2023-03-01T12:26:39;6.50;;;3.88;;
51190;SDS011;37253;48.736;9.294;2023-03-01T12:28:46;8.85;;;3.67;;
51190;SDS011;37253;48.736;9.294;2023-03-01T12:31:14;5.07;;;3.40;;
51190;SDS011;37253;48.736;9.294;2023-03-01T12:48:17;7.88;;;3.70;;
51190;SDS011;37253;48.736;9.294;2023-03-01T12:50:23;7.53;;;3.90;;
51190;SDS011;37253;48.736;9.294;2023-03-01T12:54:44;5.90;;;3.33;;
51190;SDS011;37253;48.736;9.294;2023-03-01T12:56:45;5.55;;;3.90;;
51190;SDS011;37253;48.736;9.294;2023-03-01T13:01:40;6.20;;;4.00;;
51190;SDS011;37253;48.736;9.294;2023-03-01T13:06:04;5.28;;;3.30;;
51190;SDS011;37253;48.736;9.294;2023-03-01T13:08:14;7.75;;;3.50;;
51190;SDS011;37253;48.736;9.294;2023-03-01T13:10:24;5.03;;;3.60;;
51190;SDS011;37253;48.736;9.294;2023-03-01T13:14:48;8.25;;;3.72;;
51190;SDS011;37253;48.736;9.294;2023-03-01T13:16:49;9.80;;;3.30;;
51190;SDS011;37253;48.736;9.294;2023-03-01T13:18:50;7.57;;;3.28;;
51190;SDS011;37253;48.736;9.294;2023-03-01T13:21:06;7.88;;;3.67;;
51190;SDS011;37253;48.736;9.294;2023-03-01T13:25:15;8.32;;;3.75;;
51190;SDS011;37253;48.736;9.294;2023-03-01T13:29:26;6.20;;;3.33;;
51190;SDS011;37253;48.736;9.294;2023-03-01T13:37:29;6.80;;;3.40;;
51190;SDS011;37253;48.736;9.294;2023-03-01T13:39:32;4.30;;;3.25;;
51190;SDS011;37253;48.736;9.294;2023-03-01T13:43:43;8.57;;;3.33;;
51190;SDS011;37253;48.736;9.294;2023-03-01T13:45:44;12.85;;;3.65;;